createdAt,value
2023-01-11T00:00:56.894Z,97532.53
2023-01-11T00:11:00.894Z,97529.28
2023-01-11T00:21:07.611Z,97515.72
2023-01-11T00:31:09.984Z,97527.63
2023-01-11T00:41:33.825Z,97509.25
2023-01-11T00:51:36.434Z,97498.53
2023-01-11T01:01:38.791Z,97497.50
2023-01-11T01:11:41.278Z,97483.13
2023-01-11T01:21:43.627Z,97469.13
2023-01-11T01:31:46.017Z,97455.16
2023-01-11T01:41:48.355Z,97452.59
2023-01-11T01:51:57.826Z,97450.97
2023-01-11T02:02:01.313Z,97428.06
2023-01-11T02:12:06.061Z,97404.75
2023-01-11T02:22:32.909Z,97409.88
2023-01-11T02:32:53.593Z,97392.66
2023-01-11T02:43:40.108Z,97386.75
2023-01-11T02:53:52.183Z,97362.59
2023-01-11T03:03:54.758Z,97354.63
2023-01-11T03:14:17.291Z,97355.94
2023-01-11T03:24:51.974Z,97325.81
2023-01-11T03:35:18.198Z,97301.47
2023-01-11T03:45:20.903Z,97292.94
2023-01-11T03:55:26.943Z,97257.38
2023-01-11T04:05:29.617Z,97262.09
2023-01-11T04:15:34.788Z,97235.16
2023-01-11T04:25:37.209Z,97239.03
2023-01-11T04:35:39.795Z,97241.19
2023-01-11T04:45:42.194Z,97228.34
2023-01-11T04:55:44.537Z,97220.81
2023-01-11T05:05:56.221Z,97240.75
2023-01-11T05:16:00.662Z,97222.06
2023-01-11T05:26:09.080Z,97201.94
2023-01-11T05:36:22.229Z,97180.81
2023-01-11T05:46:26.132Z,97189.16
2023-01-11T05:56:28.745Z,97183.22
2023-01-11T06:06:31.112Z,97153.94
2023-01-11T06:16:33.856Z,97150.47
2023-01-11T06:26:36.502Z,97131.47
2023-01-11T06:36:39.442Z,97115.88
2023-01-11T06:46:41.906Z,97099.09
2023-01-11T06:56:44.285Z,97124.75
2023-01-11T07:06:46.689Z,97118.59
2023-01-11T07:16:49.167Z,97103.44
2023-01-11T07:26:52.806Z,97106.59
2023-01-11T07:36:55.193Z,97090.44
2023-01-11T07:46:58.254Z,97099.75
2023-01-11T07:57:00.710Z,97096.50
2023-01-11T08:07:03.132Z,97086.03
2023-01-11T08:17:10.339Z,97082.06
2023-01-11T08:27:12.774Z,97108.47
2023-01-11T08:37:15.226Z,97110.03
2023-01-11T08:47:17.577Z,97111.25
2023-01-11T08:57:19.966Z,97113.53
2023-01-11T09:07:22.394Z,97109.47
2023-01-11T09:17:24.807Z,97123.88
2023-01-11T09:27:27.436Z,97118.88
2023-01-11T09:37:29.869Z,97106.84
2023-01-11T09:47:47.323Z,97082.22
2023-01-11T09:58:03.228Z,97082.88
2023-01-11T10:19:38.755Z,97049.56
2023-01-11T10:30:12.172Z,97011.91
2023-01-11T10:40:39.964Z,96976.94
2023-01-11T10:50:51.993Z,96961.16
2023-01-11T11:01:08.909Z,96968.69
2023-01-11T11:11:17.242Z,96955.31
2023-01-11T11:21:40.620Z,96966.03
2023-01-11T11:31:47.742Z,96939.56
2023-01-11T11:41:53.030Z,96919.03
2023-01-11T11:51:55.958Z,96904.28
2023-01-11T12:02:02.112Z,96902.75
2023-01-11T12:12:05.106Z,96894.38
2023-01-11T12:22:18.477Z,96875.13
2023-01-11T12:32:53.321Z,96856.19
2023-01-11T12:43:13.902Z,96834.44
2023-01-11T12:53:24.831Z,96833.88
2023-01-11T13:03:53.829Z,96833.25
2023-01-11T13:14:03.860Z,96821.31
2023-01-11T13:24:14.491Z,96800.47
2023-01-11T13:34:19.993Z,96792.63
2023-01-11T13:44:36.954Z,96790.03
2023-01-11T13:55:02.053Z,96787.34
2023-01-11T14:05:16.339Z,96807.66
2023-01-11T14:15:34.913Z,96818.75
2023-01-11T14:25:40.034Z,96828.00
2023-01-11T14:35:57.392Z,96836.13
2023-01-11T14:46:46.849Z,96851.28
2023-01-11T14:56:53.729Z,96848.91
2023-01-11T15:06:57.387Z,96846.72
2023-01-11T15:17:20.825Z,96827.19
2023-01-11T15:27:38.820Z,96813.13
2023-01-11T15:37:53.168Z,96824.47
2023-01-11T15:48:13.757Z,96837.47
2023-01-11T15:58:53.512Z,96842.06
2023-01-11T16:08:59.196Z,96849.88
2023-01-11T16:19:14.396Z,96862.78
2023-01-11T16:29:37.122Z,96853.84
2023-01-11T16:39:40.011Z,96863.03
2023-01-11T16:49:48.994Z,96878.22
2023-01-11T17:00:02.880Z,96878.19
2023-01-11T17:10:35.130Z,96887.91
2023-01-11T17:20:37.603Z,96882.31
2023-01-11T17:30:40.243Z,96905.03
2023-01-11T17:40:45.194Z,96916.94
2023-01-11T17:50:57.014Z,96909.56
2023-01-11T18:01:05.286Z,96896.03
2023-01-11T18:11:07.767Z,96908.44
2023-01-11T18:21:50.875Z,96911.09
2023-01-11T18:31:53.307Z,96928.03
2023-01-11T18:42:08.465Z,96924.78
2023-01-11T18:52:11.777Z,96919.84
2023-01-11T19:02:27.720Z,96950.94
2023-01-11T19:12:30.475Z,96966.56
2023-01-11T19:22:32.864Z,96975.75
2023-01-11T19:32:35.390Z,96977.03
2023-01-11T19:42:41.080Z,96985.38
2023-01-11T19:52:44.312Z,97000.66
2023-01-11T20:02:46.862Z,97011.22
2023-01-11T20:12:49.383Z,97033.41
2023-01-11T20:22:51.753Z,97048.75
2023-01-11T20:32:54.129Z,97057.56
2023-01-11T20:42:56.488Z,97059.91
2023-01-11T20:53:00.519Z,97072.84
2023-01-11T21:03:02.942Z,97061.69
2023-01-11T21:23:09.326Z,97081.09
2023-01-11T21:40:14.218Z,97092.69
2023-01-11T21:50:16.942Z,97112.19
2023-01-11T22:00:19.905Z,97120.81
2023-01-11T22:10:22.310Z,97151.72
2023-01-11T22:20:24.669Z,97158.84
2023-01-11T22:30:27.034Z,97160.34
2023-01-11T22:40:29.411Z,97159.53
2023-01-11T22:50:31.758Z,97157.59
2023-01-11T23:00:34.165Z,97171.34
2023-01-11T23:10:36.535Z,97178.97
2023-01-11T23:20:38.898Z,97190.28
2023-01-11T23:30:41.235Z,97185.97
2023-01-11T23:41:02.119Z,97188.72
2023-01-11T23:51:04.949Z,97193.19
